Time;durP1;ratioP1;P1;durP2;ratioP2;P2;SDS_P1;SDS_P2;PMS_P1;PMS_P2;Temp;Humidity;BMP_temperature;BMP_pressure;BME280_temperature;BME280_humidity;BME280_pressure;Samples;Min_cycle;Max_cycle;Signal;HPM_P1;HPM_P2
2023/02/05 00:00:55;;;;;;;7.93;4.72;;;3.60;81.50;;;;;;5133737;27;20215;-74
2023/02/05 00:03:22;;;;;;;9.00;5.57;;;3.60;81.70;;;;;;5134280;27;20255;-74
2023/02/05 00:05:49;;;;;;;8.23;4.85;;;3.50;81.70;;;;;;5134123;27;20191;-73
2023/02/05 00:08:17;;;;;;;8.57;4.60;;;3.50;82.00;;;;;;5133813;27;20208;-74
2023/02/05 00:10:44;;;;;;;6.07;3.60;;;3.40;82.20;;;;;;5133578;27;20227;-73
2023/02/05 00:13:11;;;;;;;4.82;3.65;;;3.30;82.00;;;;;;5134314;27;20251;-73
2023/02/05 00:15:40;;;;;;;5.13;3.47;;;3.30;82.60;;;;;;5133865;27;20183;-73
2023/02/05 00:18:09;;;;;;;4.57;2.65;;;3.20;83.00;;;;;;5133514;27;20222;-73
2023/02/05 00:20:36;;;;;;;3.50;2.40;;;3.20;83.20;;;;;;5133809;27;20668;-73
2023/02/05 00:23:03;;;;;;;4.63;2.90;;;3.30;83.10;;;;;;5134187;27;20195;-73
2023/02/05 00:25:31;;;;;;;4.63;2.83;;;3.20;82.80;;;;;;5133350;27;20271;-73
2023/02/05 00:27:58;;;;;;;4.22;2.42;;;3.10;82.90;;;;;;5133363;27;20222;-73
2023/02/05 00:30:27;;;;;;;6.10;3.03;;;3.00;83.50;;;;;;5132266;27;20256;-73
2023/02/05 00:32:54;;;;;;;3.42;2.40;;;3.00;83.30;;;;;;5133369;27;20200;-73
2023/02/05 00:35:22;;;;;;;5.45;2.88;;;3.00;83.60;;;;;;5133461;27;20180;-74
2023/02/05 00:37:50;;;;;;;6.00;3.00;;;2.90;83.70;;;;;;5133466;27;20187;-73
2023/02/05 00:40:17;;;;;;;6.95;4.30;;;2.90;83.90;;;;;;5133385;27;20270;-74
2023/02/05 00:42:47;;;;;;;8.93;4.30;;;2.90;84.60;;;;;;5133809;27;20604;-73
2023/02/05 00:45:14;;;;;;;6.75;4.38;;;2.90;84.60;;;;;;5133438;27;20523;-74
2023/02/05 00:47:41;;;;;;;6.63;4.15;;;2.80;85.10;;;;;;5133123;27;20194;-73
2023/02/05 00:50:09;;;;;;;6.75;4.35;;;2.80;85.20;;;;;;5133679;27;20604;-73
2023/02/05 00:52:37;;;;;;;7.28;3.90;;;2.80;85.30;;;;;;5133440;27;20194;-73
2023/02/05 00:55:05;;;;;;;6.65;3.85;;;2.80;85.20;;;;;;5133235;27;20311;-74
2023/02/05 00:57:32;;;;;;;5.43;3.35;;;2.70;85.50;;;;;;5112908;28;20666;-73
2023/02/05 00:59:59;;;;;;;4.47;3.63;;;2.70;86.20;;;;;;5112747;28;20195;-74
2023/02/05 01:02:26;;;;;;;5.88;3.35;;;2.60;86.60;;;;;;5131841;27;20200;-73
2023/02/05 01:04:54;;;;;;;5.22;3.13;;;2.60;86.70;;;;;;5133388;27;20193;-73
2023/02/05 01:07:22;;;;;;;5.90;3.22;;;2.60;87.00;;;;;;5132981;27;20240;-73
2023/02/05 01:09:51;;;;;;;3.33;2.75;;;2.60;87.20;;;;;;5133257;27;20217;-74
2023/02/05 01:12:18;;;;;;;7.28;2.30;;;2.60;87.30;;;;;;5131771;27;20233;-73
2023/02/05 01:14:45;;;;;;;4.10;2.90;;;2.60;87.30;;;;;;5132801;27;20686;-73
2023/02/05 01:17:12;;;;;;;5.78;3.53;;;2.50;87.30;;;;;;5132371;27;20187;-73
2023/02/05 01:19:39;;;;;;;5.00;3.50;;;2.50;87.50;;;;;;5133101;27;20586;-73
2023/02/05 01:22:06;;;;;;;5.97;3.90;;;2.50;87.60;;;;;;5131661;27;20189;-73
2023/02/05 01:24:34;;;;;;;3.58;2.65;;;2.50;87.50;;;;;;5132725;27;20187;-74
2023/02/05 01:27:02;;;;;;;3.92;2.70;;;2.40;87.20;;;;;;5132504;27;20224;-74
2023/02/05 01:29:30;;;;;;;5.25;2.78;;;2.40;87.60;;;;;;5132466;27;20216;-73
2023/02/05 01:31:57;;;;;;;4.15;2.60;;;2.30;87.20;;;;;;5133020;27;20206;-73
2023/02/05 01:34:24;;;;;;;4.15;2.78;;;2.30;87.10;;;;;;5132341;27;20363;-76
2023/02/05 01:36:52;;;;;;;6.10;3.50;;;2.30;87.20;;;;;;5132739;28;20254;-73
2023/02/05 01:39:19;;;;;;;8.30;3.50;;;2.10;86.90;;;;;;5132570;27;20190;-74
2023/02/05 01:41:46;;;;;;;6.72;2.85;;;2.10;87.50;;;;;;5131391;28;20179;-73
2023/02/05 01:44:17;;;;;;;6.50;3.38;;;2.00;87.70;;;;;;5132824;27;20190;-73
2023/02/05 01:46:46;;;;;;;4.50;3.67;;;2.00;87.90;;;;;;5132889;27;20302;-73
2023/02/05 01:49:19;;;;;;;3.33;2.60;;;1.90;88.50;;;;;;5132242;28;20260;-73
2023/02/05 01:51:47;;;;;;;4.80;3.10;;;1.90;89.00;;;;;;5132591;27;20223;-73
2023/02/05 01:54:16;;;;;;;4.10;2.92;;;1.90;88.80;;;;;;5132038;28;20218;-73
2023/02/05 01:56:48;;;;;;;4.80;3.10;;;1.70;87.70;;;;;;5132674;27;20196;-72
2023/02/05 01:59:19;;;;;;;4.60;3.35;;;1.70;88.20;;;;;;5132378;27;20190;-72
2023/02/05 02:01:46;;;;;;;5.18;3.50;;;1.60;88.30;;;;;;5132777;27;20337;-72
2023/02/05 02:04:20;;;;;;;4.90;3.40;;;1.60;88.70;;;;;;5132177;27;20193;-72
2023/02/05 02:06:48;;;;;;;4.05;3.05;;;1.60;88.90;;;;;;5131205;27;20194;-72
2023/02/05 02:09:15;;;;;;;4.80;2.78;;;1.60;88.80;;;;;;5132251;28;20560;-74
2023/02/05 02:11:43;;;;;;;4.47;2.88;;;1.60;88.80;;;;;;5132330;28;20226;-72
2023/02/05 02:14:11;;;;;;;3.92;2.80;;;1.50;88.80;;;;;;5132113;27;20620;-72
2023/02/05 02:16:41;;;;;;;5.05;3.28;;;1.50;88.90;;;;;;5131896;27;20188;-72
2023/02/05 02:19:18;;;;;;;4.82;2.70;;;1.50;89.00;;;;;;5132089;27;20614;-74
2023/02/05 02:22:16;;;;;;;4.15;3.60;;;1.50;89.00;;;;;;5132639;27;20203;-74
2023/02/05 02:25:12;;;;;;;4.25;3.15;;;1.40;88.90;;;;;;5128966;27;20185;-75
2023/02/05 02:27:45;;;;;;;4.53;2.95;;;1.40;89.60;;;;;;5134337;27;20262;-74
2023/02/05 02:30:19;;;;;;;4.25;3.35;;;1.40;89.80;;;;;;5135234;27;20300;-74
2023/02/05 02:32:52;;;;;;;3.88;3.10;;;1.40;90.10;;;;;;5136156;27;20193;-74
2023/02/05 02:35:26;;;;;;;5.10;3.30;;;1.30;90.30;;;;;;5135485;27;20187;-74
2023/02/05 02:38:01;;;;;;;6.68;3.45;;;1.30;90.40;;;;;;5136464;27;20226;-73
2023/02/05 02:40:33;;;;;;;4.43;3.60;;;1.20;90.20;;;;;;5135061;27;20710;-74
2023/02/05 02:43:06;;;;;;;5.68;3.40;;;1.30;90.20;;;;;;5135939;27;20192;-74
2023/02/05 02:45:37;;;;;;;6.43;3.95;;;1.30;90.10;;;;;;5135559;27;20311;-74
2023/02/05 02:48:06;;;;;;;4.45;3.30;;;1.30;90.40;;;;;;5135941;27;20248;-73
2023/02/05 02:50:36;;;;;;;5.30;3.20;;;1.30;90.40;;;;;;5135037;27;20249;-74
2023/02/05 02:53:09;;;;;;;5.25;3.22;;;1.30;90.20;;;;;;5135902;27;20265;-74
2023/02/05 02:55:41;;;;;;;5.90;4.07;;;1.20;90.00;;;;;;5135259;27;20611;-74
2023/02/05 02:58:15;;;;;;;4.18;3.25;;;1.20;90.10;;;;;;5135940;27;20607;-73
2023/02/05 03:00:45;;;;;;;4.07;2.97;;;1.10;90.10;;;;;;5135430;27;20211;-74
2023/02/05 03:03:16;;;;;;;4.90;3.10;;;1.10;90.20;;;;;;5135146;27;20189;-74
2023/02/05 03:05:46;;;;;;;4.25;3.30;;;1.00;90.30;;;;;;5135089;27;20192;-73
2023/02/05 03:08:17;;;;;;;7.22;3.63;;;1.00;90.40;;;;;;5135703;27;20192;-74
2023/02/05 03:10:48;;;;;;;4.97;2.97;;;0.90;90.40;;;;;;5134915;27;20236;-74
2023/02/05 03:13:18;;;;;;;5.60;3.60;;;0.90;90.50;;;;;;5135502;27;20193;-73
2023/02/05 03:15:46;;;;;;;6.28;3.88;;;0.90;90.60;;;;;;5134858;27;20241;-74
2023/02/05 03:18:15;;;;;;;5.50;2.60;;;0.90;90.70;;;;;;5135335;27;20272;-73
2023/02/05 03:20:50;;;;;;;5.20;3.55;;;0.80;90.60;;;;;;5134779;27;20209;-73
2023/02/05 03:23:18;;;;;;;7.32;4.38;;;0.90;90.90;;;;;;5135157;27;20211;-74
2023/02/05 03:25:45;;;;;;;4.97;3.90;;;0.90;91.00;;;;;;5133401;27;20188;-74
2023/02/05 03:28:13;;;;;;;4.45;2.92;;;0.90;91.10;;;;;;5135228;27;20193;-74
2023/02/05 03:30:53;;;;;;;6.25;3.45;;;0.80;91.00;;;;;;5134658;27;20246;-74
2023/02/05 03:33:38;;;;;;;7.00;3.70;;;0.80;90.90;;;;;;5135210;27;20206;-74
2023/02/05 03:36:11;;;;;;;4.47;3.38;;;0.70;91.00;;;;;;5134560;27;20203;-74
2023/02/05 03:38:49;;;;;;;5.18;3.75;;;0.60;91.10;;;;;;5134064;27;20368;-74
2023/02/05 03:41:54;;;;;;;5.40;3.80;;;0.50;91.50;;;;;;5134989;27;20188;-74
2023/02/05 03:44:23;;;;;;;4.72;3.10;;;0.50;91.80;;;;;;5134178;27;20208;-73
2023/02/05 03:46:59;;;;;;;5.80;4.38;;;0.50;91.90;;;;;;5134657;27;20210;-73
2023/02/05 03:49:40;;;;;;;5.25;3.97;;;0.50;92.00;;;;;;5133736;27;20272;-74
2023/02/05 03:52:13;;;;;;;5.85;4.03;;;0.50;92.10;;;;;;5134795;27;20523;-74
2023/02/05 03:54:47;;;;;;;5.78;3.90;;;0.60;92.00;;;;;;5134155;27;20257;-74
2023/02/05 03:57:21;;;;;;;5.00;3.78;;;0.60;92.00;;;;;;5134598;27;20237;-74
2023/02/05 03:59:50;;;;;;;4.63;3.83;;;0.60;92.00;;;;;;5133794;27;20195;-74
2023/02/05 04:02:19;;;;;;;6.15;3.83;;;0.50;91.90;;;;;;5134463;27;20242;-73
2023/02/05 04:04:46;;;;;;;4.80;3.70;;;0.50;92.10;;;;;;5133838;27;20180;-73
2023/02/05 04:07:14;;;;;;;4.78;3.70;;;0.50;92.10;;;;;;5134599;27;20529;-73
2023/02/05 04:09:41;;;;;;;4.57;3.45;;;0.60;92.20;;;;;;5133517;27;20215;-74
2023/02/05 04:12:09;;;;;;;5.32;3.92;;;0.60;92.10;;;;;;5133730;27;20251;-74
2023/02/05 04:14:37;;;;;;;6.00;4.30;;;0.60;92.10;;;;;;5133837;27;20192;-74
2023/02/05 04:17:06;;;;;;;4.93;4.10;;;0.70;92.00;;;;;;5134226;27;20188;-74
2023/02/05 04:19:35;;;;;;;7.30;3.97;;;0.70;91.80;;;;;;5133507;27;20723;-74
2023/02/05 04:22:02;;;;;;;6.30;3.70;;;0.70;91.70;;;;;;5133674;27;20184;-73
2023/02/05 04:24:30;;;;;;;4.25;3.00;;;0.80;91.50;;;;;;5133720;27;20219;-74
2023/02/05 04:26:57;;;;;;;13.20;6.18;;;0.70;91.10;;;;;;5133867;27;20192;-75
2023/02/05 04:29:24;;;;;;;10.77;5.60;;;0.70;90.50;;;;;;5133774;27;20260;-74
2023/02/05 04:31:51;;;;;;;13.25;5.28;;;0.60;90.00;;;;;;5133400;27;20191;-74
2023/02/05 04:34:19;;;;;;;6.95;4.68;;;0.50;90.00;;;;;;5133987;27;20203;-74
2023/02/05 04:36:47;;;;;;;8.30;5.00;;;0.50;90.00;;;;;;5133525;27;20191;-74
2023/02/05 04:39:15;;;;;;;4.50;3.40;;;0.50;89.50;;;;;;5133784;27;20227;-73
2023/02/05 04:41:42;;;;;;;5.72;3.80;;;0.40;89.50;;;;;;5133731;27;20192;-74
2023/02/05 04:44:09;;;;;;;6.93;4.28;;;0.40;89.90;;;;;;5131389;27;20232;-74
2023/02/05 04:46:36;;;;;;;6.90;4.78;;;0.40;90.20;;;;;;5133619;27;20230;-74
2023/02/05 04:49:03;;;;;;;6.30;4.40;;;0.50;90.60;;;;;;5132886;27;20735;-74
2023/02/05 04:51:31;;;;;;;6.20;4.30;;;0.60;90.60;;;;;;5132697;27;20184;-74
2023/02/05 04:54:00;;;;;;;5.43;3.53;;;0.60;90.60;;;;;;5133162;27;20230;-75
2023/02/05 04:56:27;;;;;;;9.80;4.25;;;0.60;90.30;;;;;;5132988;27;20250;-74
2023/02/05 04:58:54;;;;;;;9.23;5.38;;;0.60;90.00;;;;;;5133518;27;20184;-74
2023/02/05 05:01:23;;;;;;;9.23;5.30;;;0.70;90.10;;;;;;5133196;27;20623;-73
2023/02/05 05:03:51;;;;;;;7.60;4.80;;;0.70;90.40;;;;;;5133283;27;20638;-74
2023/02/05 05:06:19;;;;;;;8.90;6.55;;;0.70;90.50;;;;;;5133181;27;20245;-73
2023/02/05 05:08:46;;;;;;;7.18;5.15;;;0.70;90.50;;;;;;5132769;27;20190;-74
2023/02/05 05:11:16;;;;;;;7.28;4.47;;;0.70;90.30;;;;;;5132285;27;20259;-74
2023/02/05 05:13:44;;;;;;;8.75;4.50;;;0.60;90.20;;;;;;5133121;27;20586;-74
2023/02/05 05:16:14;;;;;;;5.95;4.82;;;0.60;90.40;;;;;;5133079;27;20675;-74
2023/02/05 05:18:42;;;;;;;8.07;5.40;;;0.60;90.50;;;;;;5133463;27;20248;-73
2023/02/05 05:21:09;;;;;;;8.15;5.32;;;0.50;90.50;;;;;;5132697;27;20181;-74
2023/02/05 05:23:36;;;;;;;7.53;4.80;;;0.50;90.60;;;;;;5133008;27;20252;-74
2023/02/05 05:26:06;;;;;;;7.88;4.78;;;0.40;90.80;;;;;;5132606;27;20271;-74
2023/02/05 05:28:35;;;;;;;6.78;4.82;;;0.50;91.00;;;;;;5132891;27;20235;-74
2023/02/05 05:31:07;;;;;;;9.90;4.82;;;0.40;91.10;;;;;;5132443;27;20219;-73
2023/02/05 05:33:34;;;;;;;6.05;3.90;;;0.40;91.30;;;;;;5132729;27;20221;-74
2023/02/05 05:36:01;;;;;;;6.97;5.05;;;0.40;91.10;;;;;;5132653;28;20226;-74
2023/02/05 05:38:28;;;;;;;9.05;4.35;;;0.40;91.00;;;;;;5131578;28;20248;-75
2023/02/05 05:43:47;;;;;;;7.15;5.20;;;0.40;91.20;;;;;;5133052;28;20191;-74
2023/02/05 05:46:20;;;;;;;9.63;6.70;;;0.40;91.30;;;;;;5132647;27;20192;-74
2023/02/05 05:48:48;;;;;;;12.18;6.85;;;0.30;91.60;;;;;;5132876;28;20187;-74
2023/02/05 05:51:15;;;;;;;10.98;7.22;;;0.30;92.00;;;;;;5132068;27;20288;-74
2023/02/05 05:53:42;;;;;;;11.75;6.95;;;0.40;92.10;;;;;;5132766;27;20212;-74
2023/02/05 05:56:10;;;;;;;9.88;6.80;;;0.50;92.20;;;;;;5132542;28;20179;-74
2023/02/05 05:58:37;;;;;;;12.23;7.20;;;0.40;92.10;;;;;;5132256;28;20183;-74
2023/02/05 06:01:07;;;;;;;11.73;6.72;;;0.40;92.40;;;;;;5132248;27;20180;-74
2023/02/05 06:03:34;;;;;;;7.82;6.55;;;0.50;92.60;;;;;;5136802;27;20526;-74
2023/02/05 06:06:02;;;;;;;10.23;6.63;;;0.50;92.40;;;;;;5136172;27;20187;-74
2023/02/05 06:08:30;;;;;;;9.75;6.40;;;0.50;92.20;;;;;;5135157;27;20266;-74
2023/02/05 06:10:57;;;;;;;8.82;6.50;;;0.50;92.30;;;;;;5135715;27;20227;-74
2023/02/05 06:13:24;;;;;;;8.30;6.50;;;0.50;92.20;;;;;;5136469;27;20646;-73
2023/02/05 06:15:51;;;;;;;10.13;7.03;;;0.50;92.10;;;;;;5135766;27;20213;-74
2023/02/05 06:18:19;;;;;;;10.48;6.57;;;0.50;92.00;;;;;;5136865;27;20292;-73
2023/02/05 06:20:46;;;;;;;9.77;6.53;;;0.50;91.80;;;;;;5135632;27;20183;-73
2023/02/05 06:23:14;;;;;;;9.68;5.72;;;0.40;91.50;;;;;;5134994;27;20195;-73
2023/02/05 06:25:41;;;;;;;9.90;6.07;;;0.40;91.50;;;;;;5136097;27;20216;-73
2023/02/05 06:28:08;;;;;;;8.15;6.22;;;0.40;91.70;;;;;;5135294;27;20237;-73
2023/02/05 06:30:35;;;;;;;8.35;5.90;;;0.40;91.50;;;;;;5135975;27;20215;-73
2023/02/05 06:33:02;;;;;;;7.60;5.90;;;0.30;91.30;;;;;;5135450;27;20192;-73
2023/02/05 06:35:32;;;;;;;7.43;5.60;;;0.30;91.20;;;;;;5136263;27;20270;-73
2023/02/05 06:37:59;;;;;;;11.90;6.25;;;0.20;91.10;;;;;;5135552;27;20699;-75
2023/02/05 06:40:27;;;;;;;8.00;5.70;;;0.20;91.20;;;;;;5135857;27;20567;-74
2023/02/05 06:42:54;;;;;;;7.60;6.10;;;0.10;91.10;;;;;;5136426;27;20190;-76
2023/02/05 06:45:21;;;;;;;9.77;6.75;;;0.10;91.10;;;;;;5135790;27;20184;-74
2023/02/05 06:47:49;;;;;;;8.98;6.50;;;0.10;91.10;;;;;;5134456;27;20192;-74
2023/02/05 06:50:16;;;;;;;8.25;6.05;;;0.10;91.10;;;;;;5135722;27;20599;-74
2023/02/05 06:52:45;;;;;;;11.27;8.18;;;0.00;90.90;;;;;;5129190;27;20191;-73
2023/02/05 06:55:12;;;;;;;10.13;7.43;;;0.00;91.10;;;;;;5133783;27;20559;-72
2023/02/05 06:57:39;;;;;;;10.38;7.25;;;0.00;91.50;;;;;;5132985;27;20191;-72
2023/02/05 07:00:07;;;;;;;11.00;7.80;;;0.00;91.80;;;;;;5132559;27;20265;-73
2023/02/05 07:02:35;;;;;;;9.82;6.47;;;0.00;91.90;;;;;;5133045;27;20190;-72
2023/02/05 07:05:02;;;;;;;11.85;5.88;;;0.00;92.00;;;;;;5133106;27;20832;-72
2023/02/05 07:07:29;;;;;;;8.27;5.25;;;0.10;91.90;;;;;;5134533;27;20196;-73
2023/02/05 07:09:57;;;;;;;10.73;6.90;;;0.10;91.70;;;;;;5133460;27;20179;-73
2023/02/05 07:12:25;;;;;;;11.18;8.18;;;0.10;91.70;;;;;;5133478;27;20207;-73
2023/02/05 07:14:52;;;;;;;12.27;7.45;;;0.10;91.60;;;;;;5133297;27;20184;-76
2023/02/05 07:17:19;;;;;;;10.00;6.75;;;0.20;91.70;;;;;;5133887;27;20290;-72
2023/02/05 07:19:46;;;;;;;15.98;7.78;;;0.20;91.60;;;;;;5134496;27;20196;-72
2023/02/05 07:22:14;;;;;;;9.85;8.00;;;0.30;91.70;;;;;;5132316;27;20645;-75
2023/02/05 07:24:41;;;;;;;9.02;6.95;;;0.40;91.70;;;;;;5132502;27;20180;-74
2023/02/05 07:27:10;;;;;;;11.32;6.68;;;0.30;91.40;;;;;;5131992;27;20188;-74
2023/02/05 07:29:37;;;;;;;10.20;8.75;;;0.40;92.00;;;;;;5133971;27;20192;-74
2023/02/05 07:32:04;;;;;;;12.27;9.80;;;0.50;91.40;;;;;;5130500;27;20216;-74
2023/02/05 07:34:31;;;;;;;16.45;13.35;;;0.50;91.10;;;;;;5132079;27;20192;-74
2023/02/05 07:36:59;;;;;;;14.30;12.05;;;0.60;90.90;;;;;;5129944;27;20253;-75
2023/02/05 07:39:26;;;;;;;9.77;8.05;;;0.60;90.80;;;;;;5131454;27;20726;-74
2023/02/05 07:41:54;;;;;;;10.20;7.05;;;0.70;90.70;;;;;;5132956;27;20191;-72
2023/02/05 07:44:22;;;;;;;9.80;6.80;;;0.80;90.20;;;;;;5133482;27;20188;-74
2023/02/05 07:46:50;;;;;;;9.25;7.15;;;1.00;90.20;;;;;;5132747;27;20185;-74
2023/02/05 07:49:17;;;;;;;8.55;7.30;;;1.30;90.60;;;;;;5132802;27;20198;-74
2023/02/05 07:51:44;;;;;;;9.77;7.63;;;1.70;91.00;;;;;;5132654;27;20221;-73
2023/02/05 07:54:13;;;;;;;10.38;6.25;;;2.20;90.70;;;;;;5131697;27;20655;-73
2023/02/05 07:56:41;;;;;;;9.88;6.90;;;2.70;89.40;;;;;;5132259;27;20239;-72
2023/02/05 07:59:08;;;;;;;7.93;6.35;;;3.30;86.80;;;;;;5131423;27;20259;-75
2023/02/05 08:01:36;;;;;;;8.10;6.38;;;3.80;84.50;;;;;;5131417;27;20198;-74
2023/02/05 08:04:04;;;;;;;6.70;5.05;;;4.30;83.70;;;;;;5131346;27;20252;-74
2023/02/05 08:06:32;;;;;;;5.90;4.88;;;4.80;81.40;;;;;;5133116;27;20556;-74
2023/02/05 08:08:59;;;;;;;6.65;5.10;;;5.30;80.70;;;;;;5132901;27;20180;-74
2023/02/05 08:11:26;;;;;;;8.07;6.43;;;5.80;78.90;;;;;;5132676;27;20238;-72
2023/02/05 08:13:53;;;;;;;7.65;6.30;;;6.10;74.50;;;;;;5132190;27;20188;-74
2023/02/05 08:16:20;;;;;;;11.13;9.95;;;6.30;74.50;;;;;;5128317;27;20298;-75
2023/02/05 08:18:50;;;;;;;7.50;6.70;;;6.60;72.30;;;;;;5130804;27;20537;-74
2023/02/05 08:21:17;;;;;;;8.85;7.15;;;6.80;69.90;;;;;;5132347;27;20191;-74
2023/02/05 08:23:44;;;;;;;7.68;6.40;;;7.20;71.80;;;;;;5130685;27;20278;-75
2023/02/05 08:26:13;;;;;;;7.72;6.03;;;7.70;70.40;;;;;;5132111;27;20279;-75
2023/02/05 08:28:40;;;;;;;8.48;6.45;;;8.20;69.20;;;;;;5130925;27;20223;-74
2023/02/05 08:31:12;;;;;;;9.75;7.25;;;8.60;65.70;;;;;;5131690;27;20219;-75
2023/02/05 08:33:39;;;;;;;12.50;7.03;;;8.90;64.70;;;;;;5132163;27;20274;-74
2023/02/05 08:36:12;;;;;;;9.60;7.53;;;9.30;63.20;;;;;;5131319;27;20287;-77
2023/02/05 08:38:38;;;;;;;9.63;7.82;;;9.70;59.90;;;;;;5130333;27;20242;-75
2023/02/05 08:41:11;;;;;;;10.00;7.25;;;10.00;57.20;;;;;;5131525;27;20275;-75
2023/02/05 08:43:40;;;;;;;12.38;8.07;;;10.20;56.70;;;;;;5129141;27;20287;-75
2023/02/05 08:46:07;;;;;;;9.05;7.53;;;10.60;56.50;;;;;;5130276;27;20195;-75
2023/02/05 08:48:34;;;;;;;11.75;8.25;;;10.90;54.80;;;;;;5130782;27;20279;-74
2023/02/05 08:51:01;;;;;;;11.07;7.95;;;11.20;54.40;;;;;;5124389;27;20221;-75
2023/02/05 08:53:29;;;;;;;10.70;7.70;;;11.40;53.70;;;;;;5131339;27;20187;-75
2023/02/05 08:55:56;;;;;;;10.40;7.93;;;11.70;53.30;;;;;;5131125;27;20202;-74
2023/02/05 08:58:24;;;;;;;10.77;8.15;;;12.10;51.60;;;;;;5128489;27;20537;-75
2023/02/05 09:00:52;;;;;;;10.00;6.65;;;12.30;51.30;;;;;;5130863;27;20233;-75
2023/02/05 09:03:20;;;;;;;10.30;7.10;;;12.40;49.30;;;;;;5130823;27;20282;-75
2023/02/05 09:05:46;;;;;;;6.70;6.00;;;12.70;49.50;;;;;;5131475;27;20271;-75
2023/02/05 09:08:13;;;;;;;6.28;5.47;;;13.10;50.10;;;;;;5131561;27;20279;-75
2023/02/05 09:10:45;;;;;;;6.63;5.55;;;13.50;48.90;;;;;;5131182;27;20297;-74
2023/02/05 09:13:12;;;;;;;8.25;5.80;;;13.90;48.40;;;;;;5131148;27;20191;-75
2023/02/05 09:15:42;;;;;;;6.33;5.53;;;14.20;47.40;;;;;;5130861;27;20274;-75
2023/02/05 09:18:09;;;;;;;10.00;5.00;;;14.60;46.10;;;;;;5131513;27;20444;-75
2023/02/05 09:20:40;;;;;;;10.00;5.83;;;14.70;44.70;;;;;;5131826;27;20520;-74
2023/02/05 09:23:07;;;;;;;9.50;6.20;;;15.00;45.30;;;;;;5128066;27;20468;-74
2023/02/05 09:25:34;;;;;;;8.03;6.20;;;15.00;42.70;;;;;;5130793;27;20533;-74
2023/02/05 09:28:02;;;;;;;11.03;6.60;;;15.10;41.50;;;;;;5131403;27;20429;-75
2023/02/05 09:30:29;;;;;;;10.00;6.73;;;15.20;42.40;;;;;;5130920;27;20468;-74
2023/02/05 09:32:56;;;;;;;7.23;5.03;;;15.60;42.00;;;;;;5131442;27;20524;-74
2023/02/05 09:35:23;;;;;;;10.00;7.20;;;15.80;40.50;;;;;;5131554;27;20867;-74
2023/02/05 09:37:50;;;;;;;7.07;4.63;;;16.00;41.60;;;;;;5131006;27;20432;-75
2023/02/05 09:40:21;;;;;;;6.90;5.30;;;16.40;42.00;;;;;;5130405;27;20998;-75
2023/02/05 09:42:59;;;;;;;14.43;4.73;;;17.00;40.50;;;;;;5130026;27;20425;-75
2023/02/05 09:45:37;;;;;;;9.90;4.83;;;17.20;37.70;;;;;;5128967;27;21169;-75
2023/02/05 09:48:15;;;;;;;8.83;3.90;;;17.60;37.90;;;;;;5125398;28;20536;-75
2023/02/05 09:50:42;;;;;;;6.67;3.70;;;18.00;36.90;;;;;;5130539;27;20429;-75
2023/02/05 09:53:21;;;;;;;8.10;2.90;;;18.30;37.00;;;;;;5129802;27;20516;-72
2023/02/05 09:55:49;;;;;;;5.30;3.10;;;18.70;34.40;;;;;;5128265;28;20425;-71
2023/02/05 09:58:21;;;;;;;7.17;3.47;;;18.70;34.40;;;;;;5126809;28;20473;-72
2023/02/05 10:00:53;;;;;;;11.53;4.87;;;18.90;34.80;;;;;;5131460;27;20465;-71
2023/02/05 10:03:28;;;;;;;4.50;2.50;;;19.10;34.40;;;;;;5131020;27;20429;-73
2023/02/05 10:06:10;;;;;;;7.60;3.17;;;19.40;33.10;;;;;;5122888;28;20485;-71
2023/02/05 10:08:55;;;;;;;6.53;3.07;;;19.50;32.40;;;;;;5129461;28;20524;-72
2023/02/05 10:11:30;;;;;;;6.77;3.30;;;19.50;30.60;;;;;;5129859;27;20488;-71
2023/02/05 10:14:05;;;;;;;9.20;2.90;;;19.00;32.30;;;;;;5128826;28;20469;-71
2023/02/05 10:16:53;;;;;;;4.80;2.63;;;18.20;30.00;;;;;;5129770;27;20930;-71
2023/02/05 10:19:42;;;;;;;9.97;2.77;;;17.30;30.30;;;;;;5129985;27;20438;-72
2023/02/05 10:22:24;;;;;;;15.33;4.00;;;16.40;30.70;;;;;;5125573;27;20498;-71
2023/02/05 10:25:06;;;;;;;10.03;3.07;;;15.50;31.50;;;;;;5129181;28;20433;-71
2023/02/05 10:27:43;;;;;;;8.70;2.50;;;14.80;33.90;;;;;;5129762;27;20927;-71
2023/02/05 10:30:21;;;;;;;6.93;2.90;;;14.30;34.70;;;;;;5125069;28;20433;-71
2023/02/05 10:32:59;;;;;;;7.27;3.47;;;13.80;35.50;;;;;;5129940;27;20483;-71
2023/02/05 10:35:33;;;;;;;7.43;2.93;;;13.40;36.10;;;;;;5127244;28;20430;-71
2023/02/05 10:38:00;;;;;;;5.80;3.00;;;13.00;36.50;;;;;;5130168;27;20513;-71
2023/02/05 10:40:30;;;;;;;8.97;3.17;;;12.60;36.70;;;;;;5129482;28;20433;-71
2023/02/05 10:43:05;;;;;;;10.52;4.70;;;12.20;37.10;;;;;;5129493;27;20456;-71
2023/02/05 10:45:32;;;;;;;9.05;4.43;;;11.80;38.60;;;;;;5129768;27;20183;-71
2023/02/05 10:48:31;;;;;;;10.83;3.87;;;11.50;38.80;;;;;;5129824;27;20192;-70
2023/02/05 10:51:01;;;;;;;11.07;3.20;;;11.30;40.00;;;;;;5129963;27;20539;-71
2023/02/05 10:53:30;;;;;;;5.53;3.72;;;11.10;39.80;;;;;;5132420;27;20245;-70
2023/02/05 10:55:59;;;;;;;12.35;3.35;;;11.00;41.00;;;;;;5132112;27;20232;-71
2023/02/05 10:58:38;;;;;;;9.48;4.38;;;10.90;40.10;;;;;;5133450;27;20530;-71
2023/02/05 11:01:06;;;;;;;8.63;3.00;;;10.60;40.80;;;;;;5133668;27;20264;-70
2023/02/05 11:03:40;;;;;;;11.85;3.40;;;10.50;41.10;;;;;;5128790;27;20188;-71
2023/02/05 11:06:10;;;;;;;8.07;3.33;;;10.50;41.00;;;;;;5134453;27;20274;-70
2023/02/05 11:08:44;;;;;;;9.60;3.75;;;10.50;42.00;;;;;;5129341;27;20223;-71
2023/02/05 11:11:21;;;;;;;11.10;2.50;;;10.50;42.70;;;;;;5132380;27;20215;-70
2023/02/05 11:14:00;;;;;;;6.03;2.50;;;10.50;42.40;;;;;;5128709;27;20193;-72
2023/02/05 11:16:44;;;;;;;8.90;3.20;;;10.40;43.00;;;;;;5126903;27;20199;-71
2023/02/05 11:19:21;;;;;;;7.63;3.17;;;10.20;42.30;;;;;;5130259;27;20187;-71
2023/02/05 11:21:52;;;;;;;7.38;3.13;;;10.00;42.90;;;;;;5130758;27;20191;-70
2023/02/05 11:24:34;;;;;;;5.22;2.97;;;9.80;43.70;;;;;;5127346;27;20623;-70
2023/02/05 11:27:27;;;;;;;7.78;2.60;;;9.60;44.00;;;;;;5131443;27;20213;-71
2023/02/05 11:30:21;;;;;;;8.63;2.92;;;9.40;44.80;;;;;;5117987;27;20646;-71
2023/02/05 11:33:16;;;;;;;9.60;4.13;;;9.30;45.20;;;;;;5130445;27;20241;-71
2023/02/05 11:35:52;;;;;;;10.48;3.42;;;9.10;45.10;;;;;;5131078;27;20538;-71
2023/02/05 11:38:29;;;;;;;7.90;3.45;;;8.90;45.10;;;;;;5132471;27;20210;-69
2023/02/05 11:41:01;;;;;;;7.95;3.60;;;8.80;45.90;;;;;;5132150;27;20274;-69
2023/02/05 11:43:33;;;;;;;7.53;3.35;;;8.70;45.90;;;;;;5132159;27;20192;-72
2023/02/05 11:46:02;;;;;;;9.52;3.13;;;8.60;46.20;;;;;;5131390;27;20582;-70
2023/02/05 11:48:42;;;;;;;11.38;3.10;;;8.50;46.90;;;;;;5131896;27;20194;-70
2023/02/05 11:51:27;;;;;;;4.00;2.13;;;8.50;47.60;;;;;;5126916;27;20223;-70
2023/02/05 11:54:01;;;;;;;7.10;2.35;;;8.40;47.50;;;;;;5132419;27;20192;-70
2023/02/05 11:56:35;;;;;;;6.53;3.17;;;8.40;47.50;;;;;;5131180;27;20211;-70
2023/02/05 11:59:18;;;;;;;7.28;2.45;;;8.30;47.40;;;;;;5128083;27;20203;-70
2023/02/05 12:01:50;;;;;;;6.05;2.75;;;8.20;48.20;;;;;;5131893;27;20216;-71
2023/02/05 12:04:21;;;;;;;8.90;2.60;;;8.20;48.40;;;;;;5132027;27;20638;-70
2023/02/05 12:06:59;;;;;;;7.30;2.30;;;8.20;48.00;;;;;;5132281;27;20198;-70
2023/02/05 12:09:32;;;;;;;6.15;2.35;;;8.10;48.70;;;;;;5128003;27;20219;-70
2023/02/05 12:12:20;;;;;;;4.20;3.20;;;8.10;49.00;;;;;;5131440;27;20233;-70
2023/02/05 12:15:03;;;;;;;8.05;2.75;;;8.10;49.00;;;;;;5131625;27;20195;-70
2023/02/05 12:17:42;;;;;;;6.00;2.75;;;8.00;49.30;;;;;;5131736;27;20278;-72
2023/02/05 12:20:26;;;;;;;5.68;2.63;;;8.00;49.40;;;;;;5130246;27;20240;-71
2023/02/05 12:23:13;;;;;;;9.18;2.78;;;8.00;49.20;;;;;;5129668;27;20241;-69
2023/02/05 12:25:59;;;;;;;12.40;3.67;;;8.00;49.10;;;;;;5131332;27;20271;-69
2023/02/05 12:28:41;;;;;;;8.23;2.95;;;8.00;49.20;;;;;;5131971;27;20266;-70
2023/02/05 12:31:21;;;;;;;7.20;2.33;;;8.00;49.20;;;;;;5131480;27;20195;-71
2023/02/05 12:34:09;;;;;;;6.38;2.20;;;8.00;49.80;;;;;;5130215;27;20788;-69
2023/02/05 12:36:57;;;;;;;13.38;3.70;;;8.00;49.40;;;;;;5120503;27;20192;-70
2023/02/05 12:39:43;;;;;;;9.07;2.78;;;8.00;49.70;;;;;;5129156;27;20190;-69
2023/02/05 12:42:30;;;;;;;10.88;3.40;;;8.00;49.30;;;;;;5129935;27;20183;-70
2023/02/05 12:45:17;;;;;;;10.65;4.13;;;7.90;49.70;;;;;;5130352;27;20227;-70
2023/02/05 12:48:08;;;;;;;10.48;3.00;;;7.90;49.70;;;;;;5126262;27;20190;-70
2023/02/05 12:51:03;;;;;;;6.93;2.60;;;7.80;50.20;;;;;;5127279;27;20219;-70
2023/02/05 12:53:48;;;;;;;8.85;3.30;;;7.80;51.60;;;;;;5128956;27;20231;-71
2023/02/05 12:56:45;;;;;;;5.88;2.67;;;7.70;52.60;;;;;;5127143;27;20205;-71
2023/02/05 12:59:27;;;;;;;11.50;2.55;;;7.70;53.00;;;;;;5128208;27;20645;-70
2023/02/05 13:02:05;;;;;;;9.88;3.65;;;7.60;53.70;;;;;;5126861;27;20192;-69
2023/02/05 13:04:36;;;;;;;8.82;3.88;;;7.60;54.40;;;;;;5129666;27;20199;-70
2023/02/05 13:07:11;;;;;;;9.07;4.90;;;7.60;54.80;;;;;;5128066;27;20191;-69
2023/02/05 13:09:46;;;;;;;4.93;2.20;;;7.60;55.40;;;;;;5127813;27;20630;-70
2023/02/05 13:12:26;;;;;;;8.05;3.25;;;7.50;55.00;;;;;;5127414;27;20314;-70
2023/02/05 13:15:04;;;;;;;8.88;3.85;;;7.50;54.70;;;;;;5128338;27;20187;-70
2023/02/05 13:17:38;;;;;;;10.73;2.97;;;7.50;55.10;;;;;;5126155;27;20271;-70